createdAt,value
2018-07-25T00:01:57.327Z,3.13
2018-07-25T00:04:25.788Z,3.40
2018-07-25T00:06:54.235Z,2.97
2018-07-25T00:09:22.622Z,3.50
2018-07-25T00:11:51.779Z,3.57
2018-07-25T00:14:20.871Z,3.60
2018-07-25T00:16:49.239Z,3.37
2018-07-25T00:19:17.654Z,3.40
2018-07-25T00:21:46.403Z,3.73
2018-07-25T00:24:15.246Z,3.80
2018-07-25T00:26:43.982Z,3.97
2018-07-25T00:29:12.757Z,3.40
2018-07-25T00:31:41.146Z,3.70
2018-07-25T00:34:27.926Z,3.43
2018-07-25T00:36:56.753Z,3.30
2018-07-25T00:39:25.150Z,3.70
2018-07-25T00:41:53.563Z,3.40
2018-07-25T00:44:22.205Z,3.70
2018-07-25T00:46:50.580Z,3.43
2018-07-25T00:49:19.047Z,4.00
2018-07-25T00:51:47.467Z,4.13
2018-07-25T00:54:15.869Z,3.50
2018-07-25T00:56:44.678Z,3.77
2018-07-25T00:59:13.763Z,4.07
2018-07-25T01:01:42.578Z,4.27
2018-07-25T01:04:10.948Z,4.20
2018-07-25T01:06:39.737Z,3.87
2018-07-25T01:09:09.459Z,3.70
2018-07-25T01:11:38.262Z,3.93
2018-07-25T01:14:07.002Z,3.90
2018-07-25T01:16:35.828Z,3.87
2018-07-25T01:19:04.577Z,3.27
2018-07-25T01:21:33.713Z,3.77
2018-07-25T01:24:02.073Z,4.57
2018-07-25T01:26:30.858Z,3.80
2018-07-25T01:28:59.666Z,3.77
2018-07-25T01:31:28.029Z,3.70
2018-07-25T01:33:56.408Z,3.27
2018-07-25T01:36:24.813Z,3.50
2018-07-25T01:38:53.169Z,3.70
2018-07-25T01:41:21.900Z,3.83
2018-07-25T01:43:50.679Z,4.43
2018-07-25T01:46:19.327Z,4.77
2018-07-25T01:48:48.093Z,3.77
2018-07-25T01:51:16.848Z,4.20
2018-07-25T01:53:45.227Z,4.73
2018-07-25T01:56:14.016Z,4.13
2018-07-25T01:58:43.488Z,4.43
2018-07-25T02:01:11.876Z,3.60
2018-07-25T02:03:40.980Z,4.00
2018-07-25T02:06:09.425Z,4.13
2018-07-25T02:08:38.185Z,3.80
2018-07-25T02:11:06.586Z,3.70
2018-07-25T02:13:34.995Z,3.53
2018-07-25T02:16:03.813Z,4.10
2018-07-25T02:18:32.620Z,4.10
2018-07-25T02:21:01.020Z,4.13
2018-07-25T02:23:29.419Z,3.50
2018-07-25T02:25:58.237Z,3.90
2018-07-25T02:28:26.983Z,4.00
2018-07-25T02:30:56.048Z,4.30
2018-07-25T02:33:29.999Z,4.03
2018-07-25T02:35:58.768Z,4.33
2018-07-25T02:38:27.173Z,3.90
2018-07-25T02:40:55.536Z,4.37
2018-07-25T02:43:24.320Z,4.33
2018-07-25T02:45:52.730Z,4.17
2018-07-25T02:48:21.129Z,4.10
2018-07-25T02:50:49.571Z,4.10
2018-07-25T02:53:17.918Z,4.13
2018-07-25T02:55:46.309Z,4.30
2018-07-25T02:58:14.766Z,3.87
2018-07-25T03:00:43.612Z,4.40
2018-07-25T03:03:12.042Z,4.37
2018-07-25T03:05:40.419Z,4.30
2018-07-25T03:08:09.189Z,4.00
2018-07-25T03:10:37.637Z,4.40
2018-07-25T03:13:06.043Z,3.90
2018-07-25T03:15:34.420Z,3.50
2018-07-25T03:18:03.254Z,4.10
2018-07-25T03:20:32.478Z,3.80
2018-07-25T03:23:01.294Z,4.53
2018-07-25T03:25:30.039Z,4.50
2018-07-25T03:30:26.352Z,4.23
2018-07-25T03:32:54.719Z,4.37
2018-07-25T03:35:23.492Z,4.40
2018-07-25T03:37:51.861Z,4.37
2018-07-25T03:40:20.638Z,4.40
2018-07-25T03:42:49.478Z,4.60
2018-07-25T03:45:18.359Z,4.40
2018-07-25T03:47:46.777Z,4.20
2018-07-25T03:50:15.532Z,4.77
2018-07-25T03:52:44.419Z,4.13
2018-07-25T03:55:13.144Z,4.60
2018-07-25T03:57:41.516Z,3.97
2018-07-25T04:00:10.268Z,3.90
2018-07-25T04:02:39.116Z,4.53
2018-07-25T04:05:07.467Z,4.20
2018-07-25T04:07:35.867Z,4.70
2018-07-25T04:10:05.274Z,4.50
2018-07-25T04:12:33.710Z,5.00
2018-07-25T04:15:02.488Z,4.20
2018-07-25T04:17:47.430Z,4.30
2018-07-25T04:20:16.893Z,4.90
2018-07-25T04:22:45.279Z,4.50
2018-07-25T04:25:13.707Z,4.63
2018-07-25T04:27:43.076Z,4.43
2018-07-25T04:30:12.573Z,4.90
2018-07-25T04:32:42.445Z,4.87
2018-07-25T04:35:13.303Z,4.80
2018-07-25T04:37:42.597Z,4.40
2018-07-25T04:40:11.014Z,4.70
2018-07-25T04:42:39.912Z,4.20
2018-07-25T04:45:10.183Z,4.50
2018-07-25T04:47:39.461Z,4.17
2018-07-25T04:50:08.520Z,5.40
2018-07-25T04:52:37.293Z,4.30
2018-07-25T04:55:05.696Z,4.30
2018-07-25T04:57:34.493Z,4.57
2018-07-25T05:00:02.955Z,4.30
2018-07-25T05:02:31.291Z,4.03
2018-07-25T05:04:59.688Z,4.27
2018-07-25T05:07:28.072Z,4.13
2018-07-25T05:09:56.436Z,4.13
2018-07-25T05:12:25.212Z,4.97
2018-07-25T05:14:53.620Z,3.90
2018-07-25T05:17:22.024Z,4.23
2018-07-25T05:19:50.486Z,4.40
2018-07-25T05:22:19.261Z,4.17
2018-07-25T05:24:47.622Z,4.07
2018-07-25T05:27:16.013Z,3.83
2018-07-25T05:29:44.415Z,4.20
2018-07-25T05:32:12.878Z,4.80
2018-07-25T05:34:41.232Z,4.57
2018-07-25T05:37:09.620Z,4.50
2018-07-25T05:39:38.387Z,4.40
2018-07-25T05:42:07.324Z,5.10
2018-07-25T05:44:36.033Z,5.30
2018-07-25T05:47:04.444Z,5.33
2018-07-25T05:49:32.873Z,4.70
2018-07-25T05:52:01.630Z,4.33
2018-07-25T05:54:30.408Z,5.00
2018-07-25T05:56:58.748Z,4.40
2018-07-25T05:59:27.143Z,4.07
2018-07-25T06:01:55.898Z,4.13
2018-07-25T06:04:25.061Z,4.57
2018-07-25T06:06:53.457Z,4.17
2018-07-25T06:09:22.201Z,4.10
2018-07-25T06:11:51.029Z,4.40
2018-07-25T06:14:19.921Z,3.60
2018-07-25T06:16:48.225Z,4.10
2018-07-25T06:19:16.625Z,3.80
2018-07-25T06:21:45.036Z,3.50
2018-07-25T06:24:13.779Z,3.50
2018-07-25T06:26:42.536Z,3.63
2018-07-25T06:29:10.937Z,3.33
2018-07-25T06:31:39.296Z,3.47
2018-07-25T06:34:08.129Z,3.10
2018-07-25T06:36:36.738Z,3.30
2018-07-25T06:39:09.543Z,2.90
2018-07-25T06:41:38.353Z,3.50
2018-07-25T06:44:07.500Z,3.97
2018-07-25T06:46:36.310Z,3.47
2018-07-25T06:49:05.692Z,3.37
2018-07-25T06:51:34.589Z,2.93
2018-07-25T06:54:03.044Z,3.23
2018-07-25T06:56:31.830Z,3.03
2018-07-25T06:59:00.175Z,2.67
2018-07-25T07:01:29.550Z,2.80
2018-07-25T07:03:58.383Z,3.60
2018-07-25T07:06:26.790Z,3.33
2018-07-25T07:08:55.159Z,3.50
2018-07-25T07:11:23.491Z,3.77
2018-07-25T07:13:52.425Z,3.60
2018-07-25T07:16:21.202Z,3.10
2018-07-25T07:18:49.607Z,3.10
2018-07-25T07:21:18.407Z,2.80
2018-07-25T07:23:46.768Z,3.63
2018-07-25T07:26:15.518Z,2.83
2018-07-25T07:28:43.983Z,3.30
2018-07-25T07:31:12.340Z,2.90
2018-07-25T07:33:41.128Z,3.00
2018-07-25T07:36:09.536Z,3.50
2018-07-25T07:38:38.356Z,3.17
2018-07-25T07:41:06.762Z,3.17
2018-07-25T07:43:35.131Z,2.80
2018-07-25T07:46:04.119Z,3.00
2018-07-25T07:48:32.912Z,2.90
2018-07-25T07:51:01.367Z,2.80
2018-07-25T07:53:29.745Z,2.90
2018-07-25T07:55:58.644Z,3.07
2018-07-25T07:58:27.081Z,2.90
2018-07-25T08:00:55.433Z,2.77
2018-07-25T08:03:24.042Z,2.70
2018-07-25T08:05:52.491Z,3.00
2018-07-25T08:08:20.835Z,2.73
2018-07-25T08:10:49.646Z,2.80
2018-07-25T08:13:18.417Z,2.40
2018-07-25T08:15:46.765Z,2.83
2018-07-25T08:18:15.553Z,2.90
2018-07-25T08:20:44.399Z,3.07
2018-07-25T08:23:12.772Z,2.60
2018-07-25T08:25:41.616Z,2.63
2018-07-25T08:28:10.008Z,3.10
2018-07-25T08:30:38.405Z,3.30
2018-07-25T08:33:06.811Z,2.90
2018-07-25T08:35:35.586Z,2.50
2018-07-25T08:38:04.408Z,2.50
2018-07-25T08:40:32.797Z,2.80
2018-07-25T08:43:01.523Z,2.83
2018-07-25T08:45:30.300Z,2.70
2018-07-25T08:47:58.692Z,2.80
2018-07-25T08:50:27.501Z,2.90
2018-07-25T08:52:56.387Z,3.20
2018-07-25T08:55:25.087Z,2.80
2018-07-25T08:57:53.788Z,2.63
2018-07-25T09:00:22.243Z,2.73
2018-07-25T09:02:50.653Z,2.37
2018-07-25T09:05:19.029Z,2.70
2018-07-25T09:07:47.456Z,2.80
2018-07-25T09:10:16.282Z,2.57
2018-07-25T09:12:45.080Z,2.67
2018-07-25T09:15:13.475Z,2.93
2018-07-25T09:17:41.850Z,2.70
2018-07-25T09:20:10.604Z,2.50
2018-07-25T09:22:39.413Z,2.63
2018-07-25T09:25:07.861Z,2.73
2018-07-25T09:27:36.590Z,2.40
2018-07-25T09:30:05.895Z,2.70
2018-07-25T09:32:34.656Z,2.80
2018-07-25T09:35:03.509Z,2.55
2018-07-25T09:37:31.885Z,2.23
2018-07-25T09:40:00.670Z,2.72
2018-07-25T09:42:29.082Z,2.62
2018-07-25T09:44:57.590Z,2.72
2018-07-25T09:47:26.435Z,2.30
2018-07-25T09:49:55.276Z,2.75
2018-07-25T09:52:23.711Z,2.55
2018-07-25T09:54:52.538Z,2.75
2018-07-25T09:57:21.354Z,2.90
2018-07-25T09:59:50.140Z,2.90
2018-07-25T10:02:18.600Z,2.67
2018-07-25T10:04:47.054Z,2.65
2018-07-25T10:07:15.637Z,2.92
2018-07-25T10:09:43.975Z,2.70
2018-07-25T10:12:12.424Z,2.42
2018-07-25T10:14:41.241Z,2.77
2018-07-25T10:17:09.647Z,2.55
2018-07-25T10:19:38.049Z,3.12
2018-07-25T10:22:06.904Z,2.30
2018-07-25T10:24:35.333Z,3.00
2018-07-25T10:27:03.746Z,3.20
2018-07-25T10:29:32.610Z,3.12
2018-07-25T10:32:01.097Z,2.47
2018-07-25T10:34:29.483Z,2.75
2018-07-25T10:36:57.918Z,2.75
2018-07-25T10:39:26.705Z,2.90
2018-07-25T10:41:55.119Z,2.60
2018-07-25T10:44:23.523Z,2.75
2018-07-25T10:46:52.260Z,2.87
2018-07-25T10:49:20.669Z,2.52
2018-07-25T10:51:49.455Z,2.72
2018-07-25T10:54:18.330Z,2.50
2018-07-25T10:56:46.712Z,2.40
2018-07-25T10:59:15.686Z,2.90
2018-07-25T11:01:44.073Z,3.02
2018-07-25T11:04:12.841Z,2.80
2018-07-25T11:06:41.269Z,2.75
2018-07-25T11:09:10.408Z,2.70
2018-07-25T11:11:39.212Z,2.40
2018-07-25T11:14:08.026Z,2.55
2018-07-25T11:16:36.528Z,2.87
2018-07-25T11:19:05.379Z,2.40
2018-07-25T11:21:34.203Z,2.87
2018-07-25T11:24:16.090Z,3.00
2018-07-25T11:26:44.881Z,2.90
2018-07-25T11:29:14.184Z,2.75
2018-07-25T11:31:42.664Z,2.83
2018-07-25T11:34:16.276Z,2.50
2018-07-25T11:36:45.072Z,2.77
2018-07-25T11:39:13.988Z,2.70
2018-07-25T11:41:42.749Z,2.55
2018-07-25T11:44:11.664Z,2.67
2018-07-25T11:46:40.672Z,2.62
2018-07-25T11:49:09.053Z,2.55
2018-07-25T11:51:37.477Z,2.90
2018-07-25T11:54:06.334Z,2.70
2018-07-25T11:56:34.928Z,2.50
2018-07-25T11:59:03.805Z,2.83
2018-07-25T12:01:32.606Z,2.58
2018-07-25T12:04:05.054Z,2.75
2018-07-25T12:06:33.506Z,2.60
2018-07-25T12:09:02.621Z,2.67
2018-07-25T12:11:31.071Z,2.65
2018-07-25T12:13:59.877Z,2.90
2018-07-25T12:16:28.624Z,2.85
2018-07-25T12:18:57.911Z,3.08
2018-07-25T12:21:26.687Z,2.62
2018-07-25T12:23:55.793Z,2.70
2018-07-25T12:26:24.239Z,2.95
2018-07-25T12:28:52.653Z,2.55
2018-07-25T12:31:21.414Z,2.98
2018-07-25T12:33:49.934Z,3.00
2018-07-25T12:36:18.383Z,3.42
2018-07-25T12:38:46.828Z,2.60
2018-07-25T12:41:15.673Z,2.70
2018-07-25T12:43:44.492Z,3.08
2018-07-25T12:46:13.345Z,2.50
2018-07-25T12:48:42.212Z,2.85
2018-07-25T12:51:11.329Z,2.80
2018-07-25T12:53:40.517Z,2.50
2018-07-25T12:56:09.372Z,2.58
2018-07-25T12:58:38.194Z,2.65
2018-07-25T13:01:07.063Z,2.77
2018-07-25T13:03:35.548Z,2.60
2018-07-25T13:06:03.938Z,2.80
2018-07-25T13:08:32.290Z,2.83
2018-07-25T13:11:00.776Z,2.60
2018-07-25T13:13:29.173Z,2.85
2018-07-25T13:15:57.664Z,2.90
2018-07-25T13:18:26.444Z,2.70
2018-07-25T13:20:55.291Z,2.85
2018-07-25T13:23:24.075Z,2.80
2018-07-25T13:25:52.488Z,2.83
2018-07-25T13:28:21.393Z,2.62
2018-07-25T13:30:49.788Z,2.58
2018-07-25T13:33:18.205Z,2.90
2018-07-25T13:35:46.589Z,2.72
2018-07-25T13:38:15.419Z,2.72
2018-07-25T13:40:44.269Z,2.92
2018-07-25T13:43:13.100Z,2.95
2018-07-25T13:45:42.205Z,2.50
2018-07-25T13:48:11.373Z,3.05
2018-07-25T13:50:40.251Z,6.40
2018-07-25T13:53:08.716Z,3.10
2018-07-25T13:55:37.180Z,3.95
2018-07-25T13:58:05.885Z,2.77
2018-07-25T14:00:34.692Z,2.55
2018-07-25T14:03:03.557Z,2.67
2018-07-25T14:05:32.391Z,2.80
2018-07-25T14:08:01.742Z,2.80
2018-07-25T14:10:30.515Z,2.67
2018-07-25T14:12:59.354Z,2.77
2018-07-25T14:15:28.100Z,2.67
2018-07-25T14:17:58.673Z,2.72
2018-07-25T14:20:27.434Z,2.72
2018-07-25T14:22:55.861Z,2.55
2018-07-25T14:25:24.710Z,2.52
2018-07-25T14:27:53.200Z,2.75
2018-07-25T14:30:22.116Z,3.22
2018-07-25T14:32:50.689Z,2.67
2018-07-25T14:35:19.543Z,3.17
2018-07-25T14:37:47.980Z,3.30
2018-07-25T14:40:16.876Z,2.70
2018-07-25T14:42:45.185Z,2.87
2018-07-25T14:45:13.655Z,2.50
2018-07-25T14:47:42.471Z,2.70
2018-07-25T14:50:11.375Z,2.70
2018-07-25T14:52:40.159Z,3.08
2018-07-25T14:55:08.541Z,2.62
2018-07-25T14:57:37.054Z,2.92
2018-07-25T15:00:05.901Z,2.83
2018-07-25T15:02:34.494Z,2.80
2018-07-25T15:05:02.983Z,2.90
2018-07-25T15:07:31.387Z,2.90
2018-07-25T15:10:00.255Z,2.90
2018-07-25T15:12:33.981Z,2.83
2018-07-25T15:15:02.783Z,2.83
2018-07-25T15:17:31.934Z,3.05
2018-07-25T15:20:00.726Z,2.35
2018-07-25T15:22:29.330Z,2.67
2018-07-25T15:24:57.735Z,2.98
2018-07-25T15:27:26.179Z,2.77
2018-07-25T15:29:54.987Z,2.52
2018-07-25T15:32:23.441Z,2.65
2018-07-25T15:34:52.378Z,2.30
2018-07-25T15:37:20.806Z,2.70
2018-07-25T15:39:49.638Z,2.52
2018-07-25T15:42:18.488Z,2.67
2018-07-25T15:44:47.280Z,2.30
2018-07-25T15:47:15.750Z,2.60
2018-07-25T15:49:44.177Z,2.65
2018-07-25T15:52:13.012Z,2.42
2018-07-25T15:54:41.836Z,2.65
2018-07-25T15:57:10.242Z,2.55
2018-07-25T15:59:39.049Z,2.12
2018-07-25T16:02:08.262Z,2.55
2018-07-25T16:04:36.693Z,3.02
2018-07-25T16:07:05.086Z,2.80
2018-07-25T16:09:34.104Z,2.95
2018-07-25T16:12:02.501Z,2.67
2018-07-25T16:14:30.905Z,3.72
2018-07-25T16:16:59.332Z,2.75
2018-07-25T16:19:28.174Z,3.02
2018-07-25T16:21:56.602Z,3.22
2018-07-25T16:24:25.011Z,3.10
2018-07-25T16:26:53.422Z,2.80
2018-07-25T16:29:21.828Z,3.40
2018-07-25T16:31:50.307Z,3.17
2018-07-25T16:34:18.729Z,4.03
2018-07-25T16:36:47.488Z,3.63
2018-07-25T16:39:18.469Z,3.50
2018-07-25T16:41:48.503Z,3.67
2018-07-25T16:44:16.942Z,3.60
2018-07-25T16:46:45.293Z,3.10
2018-07-25T16:49:14.117Z,3.23
2018-07-25T16:51:42.927Z,3.73
2018-07-25T16:54:11.351Z,3.20
2018-07-25T16:56:40.238Z,3.47
2018-07-25T16:59:08.678Z,3.50
2018-07-25T17:01:37.026Z,3.47
2018-07-25T17:04:05.410Z,3.20
2018-07-25T17:06:34.359Z,2.73
2018-07-25T17:09:02.827Z,3.47
2018-07-25T17:11:31.237Z,3.03
2018-07-25T17:13:59.999Z,3.60
2018-07-25T17:16:28.416Z,2.90
2018-07-25T17:18:56.764Z,2.90
2018-07-25T17:21:25.170Z,3.27
2018-07-25T17:23:53.628Z,13.03
2018-07-25T17:26:22.539Z,3.00
2018-07-25T17:28:50.965Z,3.47
2018-07-25T17:31:19.446Z,2.90
2018-07-25T17:33:48.896Z,2.50
2018-07-25T17:36:17.666Z,3.27
2018-07-25T17:38:46.067Z,2.60
2018-07-25T17:41:15.326Z,2.97
2018-07-25T17:43:44.261Z,3.10
2018-07-25T17:46:13.157Z,2.97
2018-07-25T17:48:42.021Z,3.07
2018-07-25T17:51:10.795Z,2.70
2018-07-25T17:53:39.246Z,3.33
2018-07-25T17:56:08.031Z,3.10
2018-07-25T17:58:36.443Z,3.10
2018-07-25T18:01:04.894Z,3.10
2018-07-25T18:03:34.217Z,3.03
2018-07-25T18:06:02.570Z,3.03
2018-07-25T18:08:31.302Z,2.93
2018-07-25T18:11:00.091Z,3.80
2018-07-25T18:13:33.644Z,3.60
2018-07-25T18:16:02.487Z,3.10
2018-07-25T18:18:30.881Z,2.97
2018-07-25T18:20:59.924Z,3.10
2018-07-25T18:23:28.348Z,3.30
2018-07-25T18:25:56.770Z,3.70
2018-07-25T18:28:25.215Z,3.63
2018-07-25T18:30:53.658Z,4.03
2018-07-25T18:33:22.165Z,3.47
2018-07-25T18:35:50.607Z,3.30
2018-07-25T18:38:19.774Z,3.20
2018-07-25T18:40:48.232Z,3.90
2018-07-25T18:43:17.041Z,3.73
2018-07-25T18:45:46.022Z,3.70
2018-07-25T18:48:14.896Z,3.60
2018-07-25T18:50:43.663Z,4.20
2018-07-25T18:53:12.114Z,3.67
2018-07-25T18:55:40.885Z,3.47
2018-07-25T18:58:09.674Z,3.33
2018-07-25T19:00:38.031Z,3.93
2018-07-25T19:03:06.440Z,3.80
2018-07-25T19:05:34.822Z,4.73
2018-07-25T19:08:03.630Z,4.10
2018-07-25T19:10:32.076Z,4.37
2018-07-25T19:13:00.437Z,5.00
2018-07-25T19:15:29.165Z,5.40
2018-07-25T19:17:57.582Z,4.47
2018-07-25T19:20:26.427Z,4.60
2018-07-25T19:22:54.818Z,4.73
2018-07-25T19:25:23.203Z,4.00
2018-07-25T19:27:51.989Z,10.10
2018-07-25T19:30:20.358Z,3.83
2018-07-25T19:32:49.253Z,3.67
2018-07-25T19:35:17.653Z,3.83
2018-07-25T19:37:46.050Z,3.60
2018-07-25T19:40:14.518Z,3.93
2018-07-25T19:42:43.240Z,4.13
2018-07-25T19:45:11.629Z,4.20
2018-07-25T19:47:40.025Z,4.00
2018-07-25T19:50:08.834Z,4.50
2018-07-25T19:52:37.559Z,4.10
2018-07-25T19:55:06.305Z,4.30
2018-07-25T19:57:34.737Z,4.20
2018-07-25T20:00:03.269Z,4.10
2018-07-25T20:02:32.050Z,3.80
2018-07-25T20:05:00.467Z,4.10
2018-07-25T20:07:28.907Z,4.73
2018-07-25T20:09:58.061Z,3.43
2018-07-25T20:12:26.478Z,4.53
2018-07-25T20:15:00.188Z,4.30
2018-07-25T20:17:28.561Z,4.20
2018-07-25T20:19:56.921Z,4.30
2018-07-25T20:22:25.362Z,5.00
2018-07-25T20:24:54.216Z,4.90
2018-07-25T20:27:23.063Z,4.63
2018-07-25T20:29:51.507Z,4.80
2018-07-25T20:32:19.958Z,5.27
2018-07-25T20:34:48.350Z,5.00
2018-07-25T20:37:17.133Z,4.83
2018-07-25T20:39:45.910Z,5.23
2018-07-25T20:42:14.330Z,5.07
2018-07-25T20:44:43.156Z,6.13
2018-07-25T20:47:11.953Z,5.47
2018-07-25T20:49:40.691Z,5.43
2018-07-25T20:52:09.089Z,5.07
2018-07-25T20:54:37.481Z,5.30
2018-07-25T20:57:05.877Z,5.47
2018-07-25T20:59:34.273Z,5.70
2018-07-25T21:02:03.173Z,6.00
2018-07-25T21:04:31.619Z,5.80
2018-07-25T21:06:59.996Z,6.00
2018-07-25T21:09:28.382Z,5.67
2018-07-25T21:11:57.190Z,6.00
2018-07-25T21:14:25.988Z,5.83
2018-07-25T21:16:54.379Z,5.33
2018-07-25T21:19:22.758Z,5.63
2018-07-25T21:21:51.213Z,5.03
2018-07-25T21:24:19.545Z,5.37
2018-07-25T21:26:47.987Z,6.40
2018-07-25T21:29:16.717Z,6.10
2018-07-25T21:31:45.510Z,6.23
2018-07-25T21:34:14.311Z,5.90
2018-07-25T21:36:43.057Z,6.17
2018-07-25T21:39:13.030Z,5.53
2018-07-25T21:41:41.737Z,6.33
2018-07-25T21:44:15.261Z,5.77
2018-07-25T21:46:44.083Z,6.20
2018-07-25T21:49:12.481Z,5.47
2018-07-25T21:51:40.878Z,5.80
2018-07-25T21:54:09.312Z,6.60
2018-07-25T21:56:38.206Z,6.70
2018-07-25T21:59:06.683Z,6.27
2018-07-25T22:01:35.472Z,6.50
2018-07-25T22:04:12.643Z,5.83
2018-07-25T22:06:41.055Z,6.27
2018-07-25T22:09:11.523Z,6.07
2018-07-25T22:11:40.890Z,5.77
2018-07-25T22:14:09.303Z,6.20
2018-07-25T22:16:37.659Z,7.10
2018-07-25T22:19:06.082Z,6.33
2018-07-25T22:21:34.454Z,6.90
2018-07-25T22:24:03.258Z,6.43
2018-07-25T22:26:31.628Z,6.20
2018-07-25T22:28:59.991Z,6.77
2018-07-25T22:31:28.358Z,6.60
2018-07-25T22:33:56.790Z,6.70
2018-07-25T22:36:25.176Z,7.20
2018-07-25T22:38:53.566Z,6.67
2018-07-25T22:41:22.337Z,6.30
2018-07-25T22:43:50.701Z,6.33
2018-07-25T22:46:19.581Z,6.80
2018-07-25T22:48:48.382Z,7.07
2018-07-25T22:51:17.212Z,6.13
2018-07-25T22:53:45.610Z,6.77
2018-07-25T22:56:14.008Z,6.83
2018-07-25T22:58:42.404Z,6.47
2018-07-25T23:01:11.202Z,6.70
2018-07-25T23:03:40.008Z,6.97
2018-07-25T23:06:08.764Z,6.70
2018-07-25T23:08:37.171Z,6.63
2018-07-25T23:11:05.542Z,6.87
2018-07-25T23:13:37.805Z,6.70
2018-07-25T23:16:06.580Z,6.10
2018-07-25T23:18:34.983Z,6.23
2018-07-25T23:21:03.330Z,6.40
2018-07-25T23:23:37.191Z,6.50
2018-07-25T23:26:06.082Z,5.83
2018-07-25T23:28:34.426Z,6.37
2018-07-25T23:31:03.233Z,6.20
2018-07-25T23:33:31.621Z,6.07
2018-07-25T23:35:59.997Z,6.20
2018-07-25T23:38:28.767Z,6.60
2018-07-25T23:40:57.579Z,6.10
2018-07-25T23:43:26.981Z,7.20
2018-07-25T23:45:55.345Z,5.70
2018-07-25T23:48:23.761Z,7.07
2018-07-25T23:50:52.526Z,5.97
2018-07-25T23:53:21.283Z,5.73
2018-07-25T23:55:49.728Z,6.00
2018-07-25T23:58:18.092Z,6.67
